Flight Briefing for CMB865

Departure Arrival
Elmendorf Air Force Base (PAED)
Click to view FAA NOTAMS
Travis Air Force Base (KSUU)
Click to view FAA NOTAMS
Departure Time Arrival Time
N/A N/A
Aircraft Distance
B757-200SF 1728nm
Departure METAR Arrival METAR
PAED 252356Z 30004KT 10SM FEW050 BKN200 06/00 A3020 RMK AO2A SLP224 T00640001 10066 20033 KSUU 252358Z 23014KT 4SM RA BR OVC039 13/12 A3005 RMK AO2A TWR VIS 3200 RAE42RAB56 SLP183 P0015 60023 T01320119 10172 20131 58003 $
Suggested Route
TED V440 MDO J804R FRIED TR19 YZP Q801 YAZ J501 TOU ELMAA Q1 TOCOS SUTHU1


View recent IFR Routes data
Notes
USTRANSCOM CONTRACT FLIGHT

Charts and Procedures

Charts for PAED
No chart available
Charts for KSUU
No chart available

Windy.com Weather Map